sensor_id;sensor_type;location;lat;lon;timestamp;P1;durP1;ratioP1;P2;durP2;ratioP2
73859;SDS011;62197;51.632;13.700;2023-07-29T00:02:06;5.75;;;4.30;;
73859;SDS011;62197;51.632;13.700;2023-07-29T00:04:32;5.38;;;4.35;;
73859;SDS011;62197;51.632;13.700;2023-07-29T00:06:57;5.47;;;4.18;;
73859;SDS011;62197;51.632;13.700;2023-07-29T00:09:22;5.78;;;4.55;;
73859;SDS011;62197;51.632;13.700;2023-07-29T00:11:48;6.07;;;4.18;;
73859;SDS011;62197;51.632;13.700;2023-07-29T00:14:13;7.60;;;5.05;;
73859;SDS011;62197;51.632;13.700;2023-07-29T00:16:38;6.55;;;4.97;;
73859;SDS011;62197;51.632;13.700;2023-07-29T00:19:04;7.70;;;5.15;;
73859;SDS011;62197;51.632;13.700;2023-07-29T00:21:29;6.65;;;5.05;;
73859;SDS011;62197;51.632;13.700;2023-07-29T00:23:54;6.90;;;4.85;;
73859;SDS011;62197;51.632;13.700;2023-07-29T00:26:22;6.57;;;5.53;;
73859;SDS011;62197;51.632;13.700;2023-07-29T00:28:47;8.90;;;5.18;;
73859;SDS011;62197;51.632;13.700;2023-07-29T00:31:13;8.75;;;5.97;;
73859;SDS011;62197;51.632;13.700;2023-07-29T00:33:38;6.57;;;5.07;;
73859;SDS011;62197;51.632;13.700;2023-07-29T00:36:05;7.95;;;5.45;;
73859;SDS011;62197;51.632;13.700;2023-07-29T00:38:30;7.28;;;5.20;;
73859;SDS011;62197;51.632;13.700;2023-07-29T00:40:57;6.80;;;5.07;;
73859;SDS011;62197;51.632;13.700;2023-07-29T00:43:22;7.63;;;5.75;;
73859;SDS011;62197;51.632;13.700;2023-07-29T00:45:48;7.20;;;5.15;;
73859;SDS011;62197;51.632;13.700;2023-07-29T00:48:14;7.43;;;5.10;;
73859;SDS011;62197;51.632;13.700;2023-07-29T00:50:40;10.07;;;5.70;;
73859;SDS011;62197;51.632;13.700;2023-07-29T00:53:05;8.63;;;5.90;;
73859;SDS011;62197;51.632;13.700;2023-07-29T00:55:31;9.25;;;5.75;;
73859;SDS011;62197;51.632;13.700;2023-07-29T00:57:57;10.98;;;5.90;;
73859;SDS011;62197;51.632;13.700;2023-07-29T01:00:22;8.52;;;5.90;;
73859;SDS011;62197;51.632;13.700;2023-07-29T01:02:47;9.13;;;5.88;;
73859;SDS011;62197;51.632;13.700;2023-07-29T01:05:13;9.27;;;7.07;;
73859;SDS011;62197;51.632;13.700;2023-07-29T01:10:26;11.40;;;7.38;;
73859;SDS011;62197;51.632;13.700;2023-07-29T01:15:43;9.48;;;6.15;;
73859;SDS011;62197;51.632;13.700;2023-07-29T01:18:30;8.68;;;6.15;;
73859;SDS011;62197;51.632;13.700;2023-07-29T01:21:00;8.55;;;6.30;;
73859;SDS011;62197;51.632;13.700;2023-07-29T01:23:30;9.02;;;6.18;;
73859;SDS011;62197;51.632;13.700;2023-07-29T01:25:55;9.15;;;6.40;;
73859;SDS011;62197;51.632;13.700;2023-07-29T01:28:21;10.38;;;5.82;;
73859;SDS011;62197;51.632;13.700;2023-07-29T01:30:46;9.68;;;6.35;;
73859;SDS011;62197;51.632;13.700;2023-07-29T01:33:18;11.05;;;6.50;;
73859;SDS011;62197;51.632;13.700;2023-07-29T01:35:50;8.05;;;6.15;;
73859;SDS011;62197;51.632;13.700;2023-07-29T01:38:27;11.50;;;6.18;;
73859;SDS011;62197;51.632;13.700;2023-07-29T01:41:04;9.25;;;6.38;;
73859;SDS011;62197;51.632;13.700;2023-07-29T01:43:32;9.75;;;6.50;;
73859;SDS011;62197;51.632;13.700;2023-07-29T01:45:58;9.68;;;6.85;;
73859;SDS011;62197;51.632;13.700;2023-07-29T01:48:24;8.70;;;6.28;;
73859;SDS011;62197;51.632;13.700;2023-07-29T01:50:49;8.63;;;6.13;;
73859;SDS011;62197;51.632;13.700;2023-07-29T01:53:15;10.85;;;6.68;;
73859;SDS011;62197;51.632;13.700;2023-07-29T01:55:41;8.05;;;5.45;;
73859;SDS011;62197;51.632;13.700;2023-07-29T01:58:09;9.80;;;6.18;;
73859;SDS011;62197;51.632;13.700;2023-07-29T02:00:34;8.10;;;5.72;;
73859;SDS011;62197;51.632;13.700;2023-07-29T02:03:00;9.05;;;5.72;;
73859;SDS011;62197;51.632;13.700;2023-07-29T02:05:25;9.77;;;6.88;;
73859;SDS011;62197;51.632;13.700;2023-07-29T02:07:50;8.40;;;6.15;;
73859;SDS011;62197;51.632;13.700;2023-07-29T02:10:16;8.07;;;6.03;;
73859;SDS011;62197;51.632;13.700;2023-07-29T02:12:41;7.75;;;5.20;;
73859;SDS011;62197;51.632;13.700;2023-07-29T02:15:07;8.55;;;6.03;;
73859;SDS011;62197;51.632;13.700;2023-07-29T02:17:32;7.35;;;5.18;;
73859;SDS011;62197;51.632;13.700;2023-07-29T02:19:58;7.85;;;4.95;;
73859;SDS011;62197;51.632;13.700;2023-07-29T02:22:23;7.35;;;5.47;;
73859;SDS011;62197;51.632;13.700;2023-07-29T02:24:48;8.38;;;5.53;;
73859;SDS011;62197;51.632;13.700;2023-07-29T02:27:14;8.27;;;5.15;;
73859;SDS011;62197;51.632;13.700;2023-07-29T02:29:39;8.95;;;4.78;;
73859;SDS011;62197;51.632;13.700;2023-07-29T02:32:04;6.97;;;4.70;;
73859;SDS011;62197;51.632;13.700;2023-07-29T02:34:30;7.55;;;5.28;;
73859;SDS011;62197;51.632;13.700;2023-07-29T02:36:55;8.25;;;5.72;;
73859;SDS011;62197;51.632;13.700;2023-07-29T02:39:20;7.75;;;5.60;;
73859;SDS011;62197;51.632;13.700;2023-07-29T02:41:46;10.20;;;5.30;;
73859;SDS011;62197;51.632;13.700;2023-07-29T02:44:12;10.23;;;5.43;;
73859;SDS011;62197;51.632;13.700;2023-07-29T02:46:37;7.47;;;5.57;;
73859;SDS011;62197;51.632;13.700;2023-07-29T02:49:02;7.60;;;4.85;;
73859;SDS011;62197;51.632;13.700;2023-07-29T02:51:29;8.02;;;4.95;;
73859;SDS011;62197;51.632;13.700;2023-07-29T02:53:54;8.40;;;5.00;;
73859;SDS011;62197;51.632;13.700;2023-07-29T02:56:20;7.45;;;4.95;;
73859;SDS011;62197;51.632;13.700;2023-07-29T02:58:45;10.00;;;4.95;;
73859;SDS011;62197;51.632;13.700;2023-07-29T03:01:10;7.38;;;4.38;;
73859;SDS011;62197;51.632;13.700;2023-07-29T03:03:36;7.88;;;5.13;;
73859;SDS011;62197;51.632;13.700;2023-07-29T03:06:02;10.07;;;5.82;;
73859;SDS011;62197;51.632;13.700;2023-07-29T03:08:29;7.80;;;5.20;;
73859;SDS011;62197;51.632;13.700;2023-07-29T03:10:55;7.85;;;4.60;;
73859;SDS011;62197;51.632;13.700;2023-07-29T03:13:21;7.80;;;4.75;;
73859;SDS011;62197;51.632;13.700;2023-07-29T03:15:46;7.97;;;5.45;;
73859;SDS011;62197;51.632;13.700;2023-07-29T03:18:12;7.82;;;5.00;;
73859;SDS011;62197;51.632;13.700;2023-07-29T03:20:37;7.13;;;4.47;;
73859;SDS011;62197;51.632;13.700;2023-07-29T03:23:02;7.43;;;4.13;;
73859;SDS011;62197;51.632;13.700;2023-07-29T03:25:28;5.75;;;3.92;;
73859;SDS011;62197;51.632;13.700;2023-07-29T03:27:53;5.57;;;4.30;;
73859;SDS011;62197;51.632;13.700;2023-07-29T03:30:19;5.43;;;3.65;;
73859;SDS011;62197;51.632;13.700;2023-07-29T03:32:46;5.25;;;3.90;;
73859;SDS011;62197;51.632;13.700;2023-07-29T03:35:12;5.97;;;4.40;;
73859;SDS011;62197;51.632;13.700;2023-07-29T03:37:37;5.68;;;3.67;;
73859;SDS011;62197;51.632;13.700;2023-07-29T03:40:03;6.38;;;3.80;;
73859;SDS011;62197;51.632;13.700;2023-07-29T03:42:29;6.20;;;3.10;;
73859;SDS011;62197;51.632;13.700;2023-07-29T03:44:54;6.07;;;4.18;;
73859;SDS011;62197;51.632;13.700;2023-07-29T03:47:19;5.57;;;2.97;;
73859;SDS011;62197;51.632;13.700;2023-07-29T03:49:45;4.50;;;3.30;;
73859;SDS011;62197;51.632;13.700;2023-07-29T03:52:10;5.75;;;3.60;;
73859;SDS011;62197;51.632;13.700;2023-07-29T03:54:35;10.52;;;5.50;;
73859;SDS011;62197;51.632;13.700;2023-07-29T03:57:01;4.30;;;3.28;;
73859;SDS011;62197;51.632;13.700;2023-07-29T03:59:26;5.88;;;3.28;;
73859;SDS011;62197;51.632;13.700;2023-07-29T04:01:51;4.30;;;3.28;;
73859;SDS011;62197;51.632;13.700;2023-07-29T04:04:17;4.13;;;2.92;;
73859;SDS011;62197;51.632;13.700;2023-07-29T04:06:42;4.07;;;3.05;;
73859;SDS011;62197;51.632;13.700;2023-07-29T04:09:07;4.32;;;2.95;;
73859;SDS011;62197;51.632;13.700;2023-07-29T04:11:33;5.43;;;3.58;;
73859;SDS011;62197;51.632;13.700;2023-07-29T04:13:58;3.92;;;2.90;;
73859;SDS011;62197;51.632;13.700;2023-07-29T04:16:24;4.10;;;2.97;;
73859;SDS011;62197;51.632;13.700;2023-07-29T04:18:49;3.80;;;3.00;;
73859;SDS011;62197;51.632;13.700;2023-07-29T04:21:14;3.42;;;2.70;;
73859;SDS011;62197;51.632;13.700;2023-07-29T04:23:40;3.58;;;2.92;;
73859;SDS011;62197;51.632;13.700;2023-07-29T04:26:05;3.75;;;2.70;;
73859;SDS011;62197;51.632;13.700;2023-07-29T04:28:30;4.05;;;3.10;;
73859;SDS011;62197;51.632;13.700;2023-07-29T04:30:56;4.13;;;2.70;;
73859;SDS011;62197;51.632;13.700;2023-07-29T04:33:21;3.72;;;2.97;;
73859;SDS011;62197;51.632;13.700;2023-07-29T04:35:46;3.85;;;2.55;;
73859;SDS011;62197;51.632;13.700;2023-07-29T04:38:12;2.90;;;2.38;;
73859;SDS011;62197;51.632;13.700;2023-07-29T04:40:37;3.90;;;3.10;;
73859;SDS011;62197;51.632;13.700;2023-07-29T04:43:02;4.15;;;2.30;;
73859;SDS011;62197;51.632;13.700;2023-07-29T04:45:28;4.80;;;2.30;;
73859;SDS011;62197;51.632;13.700;2023-07-29T04:47:54;3.35;;;2.55;;
73859;SDS011;62197;51.632;13.700;2023-07-29T04:50:20;4.50;;;2.40;;
73859;SDS011;62197;51.632;13.700;2023-07-29T04:52:45;3.08;;;2.25;;
73859;SDS011;62197;51.632;13.700;2023-07-29T04:55:10;3.08;;;2.50;;
73859;SDS011;62197;51.632;13.700;2023-07-29T04:57:36;3.75;;;2.13;;
73859;SDS011;62197;51.632;13.700;2023-07-29T05:00:02;2.75;;;2.10;;
73859;SDS011;62197;51.632;13.700;2023-07-29T05:02:28;3.28;;;2.17;;
73859;SDS011;62197;51.632;13.700;2023-07-29T05:04:53;2.97;;;2.03;;
73859;SDS011;62197;51.632;13.700;2023-07-29T05:07:18;3.40;;;1.92;;
73859;SDS011;62197;51.632;13.700;2023-07-29T05:09:44;3.05;;;2.15;;
73859;SDS011;62197;51.632;13.700;2023-07-29T05:12:09;2.70;;;2.00;;
73859;SDS011;62197;51.632;13.700;2023-07-29T05:14:34;3.33;;;2.08;;
73859;SDS011;62197;51.632;13.700;2023-07-29T05:17:00;3.10;;;2.13;;
73859;SDS011;62197;51.632;13.700;2023-07-29T05:19:25;4.35;;;2.65;;
73859;SDS011;62197;51.632;13.700;2023-07-29T05:21:51;7.05;;;3.75;;
73859;SDS011;62197;51.632;13.700;2023-07-29T05:24:16;6.72;;;3.15;;
73859;SDS011;62197;51.632;13.700;2023-07-29T05:26:42;5.28;;;2.67;;
73859;SDS011;62197;51.632;13.700;2023-07-29T05:29:07;3.03;;;1.58;;
73859;SDS011;62197;51.632;13.700;2023-07-29T05:31:32;2.95;;;1.38;;
73859;SDS011;62197;51.632;13.700;2023-07-29T05:33:58;2.35;;;1.20;;
73859;SDS011;62197;51.632;13.700;2023-07-29T05:36:24;2.03;;;1.40;;
73859;SDS011;62197;51.632;13.700;2023-07-29T05:38:49;1.20;;;1.00;;
73859;SDS011;62197;51.632;13.700;2023-07-29T05:41:16;4.05;;;1.48;;
73859;SDS011;62197;51.632;13.700;2023-07-29T05:43:41;1.48;;;1.27;;
73859;SDS011;62197;51.632;13.700;2023-07-29T05:46:08;1.38;;;0.93;;
73859;SDS011;62197;51.632;13.700;2023-07-29T05:48:34;2.17;;;1.20;;
73859;SDS011;62197;51.632;13.700;2023-07-29T05:50:59;2.90;;;1.20;;
73859;SDS011;62197;51.632;13.700;2023-07-29T05:53:24;1.60;;;1.10;;
73859;SDS011;62197;51.632;13.700;2023-07-29T05:55:49;1.45;;;0.93;;
73859;SDS011;62197;51.632;13.700;2023-07-29T05:58:15;1.10;;;0.80;;
73859;SDS011;62197;51.632;13.700;2023-07-29T06:00:40;1.88;;;1.10;;
73859;SDS011;62197;51.632;13.700;2023-07-29T06:03:06;2.03;;;1.05;;
73859;SDS011;62197;51.632;13.700;2023-07-29T06:05:31;1.50;;;0.82;;
73859;SDS011;62197;51.632;13.700;2023-07-29T06:07:56;2.83;;;1.08;;
73859;SDS011;62197;51.632;13.700;2023-07-29T06:10:22;1.58;;;0.90;;
73859;SDS011;62197;51.632;13.700;2023-07-29T06:12:47;2.30;;;0.82;;
73859;SDS011;62197;51.632;13.700;2023-07-29T06:15:13;2.03;;;0.85;;
73859;SDS011;62197;51.632;13.700;2023-07-29T06:17:38;1.67;;;1.17;;
73859;SDS011;62197;51.632;13.700;2023-07-29T06:20:04;1.05;;;0.77;;
73859;SDS011;62197;51.632;13.700;2023-07-29T06:22:30;0.80;;;0.80;;
73859;SDS011;62197;51.632;13.700;2023-07-29T06:24:56;1.65;;;1.00;;
73859;SDS011;62197;51.632;13.700;2023-07-29T06:27:21;1.50;;;1.00;;
73859;SDS011;62197;51.632;13.700;2023-07-29T06:29:46;2.20;;;0.80;;
73859;SDS011;62197;51.632;13.700;2023-07-29T06:32:12;2.60;;;1.00;;
73859;SDS011;62197;51.632;13.700;2023-07-29T06:34:37;1.20;;;0.77;;
73859;SDS011;62197;51.632;13.700;2023-07-29T06:37:02;0.95;;;0.75;;
73859;SDS011;62197;51.632;13.700;2023-07-29T06:39:28;1.13;;;0.90;;
73859;SDS011;62197;51.632;13.700;2023-07-29T06:41:53;1.65;;;1.00;;
73859;SDS011;62197;51.632;13.700;2023-07-29T06:44:18;1.23;;;1.00;;
73859;SDS011;62197;51.632;13.700;2023-07-29T06:46:44;0.93;;;0.70;;
73859;SDS011;62197;51.632;13.700;2023-07-29T06:49:09;1.10;;;0.70;;
73859;SDS011;62197;51.632;13.700;2023-07-29T06:51:34;0.95;;;0.63;;
73859;SDS011;62197;51.632;13.700;2023-07-29T06:54:01;1.38;;;0.80;;
73859;SDS011;62197;51.632;13.700;2023-07-29T06:56:26;1.17;;;0.63;;
73859;SDS011;62197;51.632;13.700;2023-07-29T06:58:52;1.20;;;0.70;;
73859;SDS011;62197;51.632;13.700;2023-07-29T07:01:17;1.25;;;0.80;;
73859;SDS011;62197;51.632;13.700;2023-07-29T07:03:42;1.85;;;0.73;;
73859;SDS011;62197;51.632;13.700;2023-07-29T07:06:08;1.42;;;0.90;;
73859;SDS011;62197;51.632;13.700;2023-07-29T07:08:33;4.05;;;0.70;;
73859;SDS011;62197;51.632;13.700;2023-07-29T07:10:59;1.42;;;0.63;;
73859;SDS011;62197;51.632;13.700;2023-07-29T07:13:24;1.65;;;0.70;;
73859;SDS011;62197;51.632;13.700;2023-07-29T07:15:49;0.90;;;0.70;;
73859;SDS011;62197;51.632;13.700;2023-07-29T07:18:15;1.52;;;0.63;;
73859;SDS011;62197;51.632;13.700;2023-07-29T07:20:40;1.80;;;0.80;;
73859;SDS011;62197;51.632;13.700;2023-07-29T07:23:05;1.05;;;0.70;;
73859;SDS011;62197;51.632;13.700;2023-07-29T07:25:33;1.02;;;0.60;;
73859;SDS011;62197;51.632;13.700;2023-07-29T07:27:59;1.20;;;0.80;;
73859;SDS011;62197;51.632;13.700;2023-07-29T07:30:24;1.40;;;0.73;;
73859;SDS011;62197;51.632;13.700;2023-07-29T07:32:50;1.13;;;0.80;;
73859;SDS011;62197;51.632;13.700;2023-07-29T07:35:15;1.50;;;0.50;;
73859;SDS011;62197;51.632;13.700;2023-07-29T07:37:41;1.50;;;1.00;;
73859;SDS011;62197;51.632;13.700;2023-07-29T07:40:06;1.42;;;1.00;;
73859;SDS011;62197;51.632;13.700;2023-07-29T07:42:32;1.00;;;0.82;;
73859;SDS011;62197;51.632;13.700;2023-07-29T07:44:57;0.90;;;0.70;;
73859;SDS011;62197;51.632;13.700;2023-07-29T07:47:23;1.70;;;0.80;;
73859;SDS011;62197;51.632;13.700;2023-07-29T07:49:48;1.48;;;0.90;;
73859;SDS011;62197;51.632;13.700;2023-07-29T07:52:15;0.98;;;0.75;;
73859;SDS011;62197;51.632;13.700;2023-07-29T07:54:40;0.77;;;0.55;;
73859;SDS011;62197;51.632;13.700;2023-07-29T07:57:06;1.50;;;1.00;;
73859;SDS011;62197;51.632;13.700;2023-07-29T07:59:31;3.08;;;0.70;;
73859;SDS011;62197;51.632;13.700;2023-07-29T08:01:56;2.08;;;1.20;;
73859;SDS011;62197;51.632;13.700;2023-07-29T08:04:21;0.98;;;0.70;;
73859;SDS011;62197;51.632;13.700;2023-07-29T08:06:47;1.60;;;0.93;;
73859;SDS011;62197;51.632;13.700;2023-07-29T08:09:12;1.48;;;0.95;;
73859;SDS011;62197;51.632;13.700;2023-07-29T08:11:37;1.08;;;0.88;;
73859;SDS011;62197;51.632;13.700;2023-07-29T08:14:03;0.95;;;0.73;;
73859;SDS011;62197;51.632;13.700;2023-07-29T08:16:28;1.10;;;0.98;;
73859;SDS011;62197;51.632;13.700;2023-07-29T08:18:54;1.08;;;0.70;;
73859;SDS011;62197;51.632;13.700;2023-07-29T08:21:19;1.20;;;0.80;;
73859;SDS011;62197;51.632;13.700;2023-07-29T08:23:44;1.10;;;0.80;;
73859;SDS011;62197;51.632;13.700;2023-07-29T08:26:10;0.60;;;0.60;;
73859;SDS011;62197;51.632;13.700;2023-07-29T08:28:36;1.25;;;0.80;;
73859;SDS011;62197;51.632;13.700;2023-07-29T08:31:03;1.95;;;0.60;;
73859;SDS011;62197;51.632;13.700;2023-07-29T08:33:28;1.55;;;0.95;;
73859;SDS011;62197;51.632;13.700;2023-07-29T08:35:55;1.33;;;0.85;;
73859;SDS011;62197;51.632;13.700;2023-07-29T08:38:22;0.85;;;0.70;;
73859;SDS011;62197;51.632;13.700;2023-07-29T08:40:58;4.85;;;1.02;;
73859;SDS011;62197;51.632;13.700;2023-07-29T08:43:34;0.60;;;0.60;;
73859;SDS011;62197;51.632;13.700;2023-07-29T08:46:03;1.25;;;0.68;;
73859;SDS011;62197;51.632;13.700;2023-07-29T08:48:32;1.40;;;0.93;;
73859;SDS011;62197;51.632;13.700;2023-07-29T08:51:04;1.00;;;0.70;;
73859;SDS011;62197;51.632;13.700;2023-07-29T08:53:30;1.30;;;0.70;;
73859;SDS011;62197;51.632;13.700;2023-07-29T08:55:56;1.00;;;0.70;;
73859;SDS011;62197;51.632;13.700;2023-07-29T08:58:22;0.80;;;0.50;;
73859;SDS011;62197;51.632;13.700;2023-07-29T09:00:49;1.20;;;0.82;;
73859;SDS011;62197;51.632;13.700;2023-07-29T09:03:15;1.13;;;0.70;;
73859;SDS011;62197;51.632;13.700;2023-07-29T09:05:40;1.38;;;0.80;;
73859;SDS011;62197;51.632;13.700;2023-07-29T09:08:05;1.00;;;0.73;;
73859;SDS011;62197;51.632;13.700;2023-07-29T09:10:35;1.33;;;0.77;;
73859;SDS011;62197;51.632;13.700;2023-07-29T09:13:01;1.40;;;0.77;;
73859;SDS011;62197;51.632;13.700;2023-07-29T09:15:28;2.88;;;1.10;;
73859;SDS011;62197;51.632;13.700;2023-07-29T09:17:56;2.17;;;0.98;;
73859;SDS011;62197;51.632;13.700;2023-07-29T09:20:28;2.33;;;1.00;;
73859;SDS011;62197;51.632;13.700;2023-07-29T09:22:58;2.28;;;0.90;;
73859;SDS011;62197;51.632;13.700;2023-07-29T09:25:27;1.13;;;0.60;;
73859;SDS011;62197;51.632;13.700;2023-07-29T09:28:07;1.13;;;0.85;;
73859;SDS011;62197;51.632;13.700;2023-07-29T09:30:34;1.17;;;0.82;;
73859;SDS011;62197;51.632;13.700;2023-07-29T09:33:00;1.33;;;0.70;;
73859;SDS011;62197;51.632;13.700;2023-07-29T09:35:27;1.10;;;0.80;;
73859;SDS011;62197;51.632;13.700;2023-07-29T09:37:53;1.63;;;0.70;;
73859;SDS011;62197;51.632;13.700;2023-07-29T09:40:18;2.20;;;0.75;;
73859;SDS011;62197;51.632;13.700;2023-07-29T09:42:50;0.65;;;0.60;;
73859;SDS011;62197;51.632;13.700;2023-07-29T09:45:26;0.65;;;0.50;;
73859;SDS011;62197;51.632;13.700;2023-07-29T09:47:52;0.85;;;0.57;;
73859;SDS011;62197;51.632;13.700;2023-07-29T09:50:20;0.90;;;0.63;;
73859;SDS011;62197;51.632;13.700;2023-07-29T09:52:48;2.58;;;1.02;;
73859;SDS011;62197;51.632;13.700;2023-07-29T09:55:17;1.17;;;0.70;;
73859;SDS011;62197;51.632;13.700;2023-07-29T09:57:43;1.77;;;0.68;;
73859;SDS011;62197;51.632;13.700;2023-07-29T10:00:10;2.05;;;0.73;;
73859;SDS011;62197;51.632;13.700;2023-07-29T10:02:38;0.90;;;0.80;;
73859;SDS011;62197;51.632;13.700;2023-07-29T10:05:05;2.10;;;0.70;;
73859;SDS011;62197;51.632;13.700;2023-07-29T10:07:31;2.45;;;0.80;;
73859;SDS011;62197;51.632;13.700;2023-07-29T10:09:58;1.08;;;0.57;;
73859;SDS011;62197;51.632;13.700;2023-07-29T10:12:24;1.20;;;0.70;;
73859;SDS011;62197;51.632;13.700;2023-07-29T10:14:50;1.45;;;0.82;;
73859;SDS011;62197;51.632;13.700;2023-07-29T10:17:15;1.63;;;0.88;;
73859;SDS011;62197;51.632;13.700;2023-07-29T10:19:41;1.33;;;0.68;;
73859;SDS011;62197;51.632;13.700;2023-07-29T10:22:09;2.13;;;0.80;;
73859;SDS011;62197;51.632;13.700;2023-07-29T10:24:36;1.33;;;0.93;;
73859;SDS011;62197;51.632;13.700;2023-07-29T10:27:06;3.65;;;1.17;;
73859;SDS011;62197;51.632;13.700;2023-07-29T10:29:32;1.70;;;1.00;;
73859;SDS011;62197;51.632;13.700;2023-07-29T10:32:02;1.65;;;0.75;;
73859;SDS011;62197;51.632;13.700;2023-07-29T10:34:29;3.50;;;0.70;;
73859;SDS011;62197;51.632;13.700;2023-07-29T10:36:55;0.93;;;0.63;;
73859;SDS011;62197;51.632;13.700;2023-07-29T10:39:21;1.88;;;0.65;;
73859;SDS011;62197;51.632;13.700;2023-07-29T10:41:55;2.58;;;0.80;;
73859;SDS011;62197;51.632;13.700;2023-07-29T10:52:15;1.35;;;0.85;;
73859;SDS011;62197;51.632;13.700;2023-07-29T10:54:42;1.05;;;0.60;;
73859;SDS011;62197;51.632;13.700;2023-07-29T10:57:08;2.25;;;0.80;;
73859;SDS011;62197;51.632;13.700;2023-07-29T10:59:38;1.15;;;0.70;;
73859;SDS011;62197;51.632;13.700;2023-07-29T11:02:06;1.20;;;0.70;;
73859;SDS011;62197;51.632;13.700;2023-07-29T11:04:47;0.90;;;0.47;;
73859;SDS011;62197;51.632;13.700;2023-07-29T11:17:36;1.42;;;0.75;;
73859;SDS011;62197;51.632;13.700;2023-07-29T11:20:04;0.63;;;0.57;;
73859;SDS011;62197;51.632;13.700;2023-07-29T11:22:30;1.10;;;0.55;;
73859;SDS011;62197;51.632;13.700;2023-07-29T11:24:55;1.33;;;0.52;;
73859;SDS011;62197;51.632;13.700;2023-07-29T11:27:21;1.20;;;0.70;;
73859;SDS011;62197;51.632;13.700;2023-07-29T11:29:47;1.80;;;0.80;;
73859;SDS011;62197;51.632;13.700;2023-07-29T11:32:13;1.65;;;0.70;;
73859;SDS011;62197;51.632;13.700;2023-07-29T11:34:39;1.15;;;0.70;;
73859;SDS011;62197;51.632;13.700;2023-07-29T11:37:08;1.13;;;0.80;;
73859;SDS011;62197;51.632;13.700;2023-07-29T11:39:42;0.85;;;0.60;;
73859;SDS011;62197;51.632;13.700;2023-07-29T11:42:12;1.15;;;0.60;;
73859;SDS011;62197;51.632;13.700;2023-07-29T11:44:38;0.75;;;0.50;;
73859;SDS011;62197;51.632;13.700;2023-07-29T11:47:07;0.52;;;0.47;;
73859;SDS011;62197;51.632;13.700;2023-07-29T11:49:33;1.65;;;0.50;;
73859;SDS011;62197;51.632;13.700;2023-07-29T11:51:59;0.80;;;0.52;;
73859;SDS011;62197;51.632;13.700;2023-07-29T11:54:25;0.40;;;0.40;;
73859;SDS011;62197;51.632;13.700;2023-07-29T11:56:50;0.63;;;0.50;;
73859;SDS011;62197;51.632;13.700;2023-07-29T11:59:16;0.85;;;0.50;;
73859;SDS011;62197;51.632;13.700;2023-07-29T12:01:41;1.10;;;0.60;;
73859;SDS011;62197;51.632;13.700;2023-07-29T12:04:06;0.50;;;0.50;;
73859;SDS011;62197;51.632;13.700;2023-07-29T12:06:32;0.63;;;0.50;;
73859;SDS011;62197;51.632;13.700;2023-07-29T12:08:58;2.45;;;0.55;;
73859;SDS011;62197;51.632;13.700;2023-07-29T12:11:23;0.75;;;0.47;;
73859;SDS011;62197;51.632;13.700;2023-07-29T12:13:49;0.30;;;0.30;;
73859;SDS011;62197;51.632;13.700;2023-07-29T12:16:17;0.68;;;0.43;;
73859;SDS011;62197;51.632;13.700;2023-07-29T12:18:43;0.88;;;0.40;;
73859;SDS011;62197;51.632;13.700;2023-07-29T12:21:08;0.63;;;0.40;;
73859;SDS011;62197;51.632;13.700;2023-07-29T12:23:34;0.75;;;0.43;;
73859;SDS011;62197;51.632;13.700;2023-07-29T12:25:59;1.13;;;0.55;;
73859;SDS011;62197;51.632;13.700;2023-07-29T12:28:25;0.73;;;0.43;;
73859;SDS011;62197;51.632;13.700;2023-07-29T12:30:54;2.30;;;0.68;;
73859;SDS011;62197;51.632;13.700;2023-07-29T12:33:29;1.30;;;0.40;;
73859;SDS011;62197;51.632;13.700;2023-07-29T12:35:55;2.65;;;0.60;;
73859;SDS011;62197;51.632;13.700;2023-07-29T12:38:21;1.67;;;0.55;;
73859;SDS011;62197;51.632;13.700;2023-07-29T12:40:46;2.13;;;0.50;;
73859;SDS011;62197;51.632;13.700;2023-07-29T12:43:12;2.47;;;0.43;;
73859;SDS011;62197;51.632;13.700;2023-07-29T12:45:37;2.30;;;0.52;;
73859;SDS011;62197;51.632;13.700;2023-07-29T12:48:04;1.25;;;0.20;;
73859;SDS011;62197;51.632;13.700;2023-07-29T12:50:30;0.73;;;0.35;;
73859;SDS011;62197;51.632;13.700;2023-07-29T12:52:55;3.08;;;1.63;;
73859;SDS011;62197;51.632;13.700;2023-07-29T12:55:20;1.23;;;0.60;;
73859;SDS011;62197;51.632;13.700;2023-07-29T12:57:46;0.93;;;0.50;;
73859;SDS011;62197;51.632;13.700;2023-07-29T13:00:11;1.13;;;0.40;;
73859;SDS011;62197;51.632;13.700;2023-07-29T13:02:37;2.10;;;0.57;;
73859;SDS011;62197;51.632;13.700;2023-07-29T13:05:02;3.03;;;0.77;;
73859;SDS011;62197;51.632;13.700;2023-07-29T13:07:28;1.85;;;0.60;;
73859;SDS011;62197;51.632;13.700;2023-07-29T13:09:53;2.35;;;0.65;;
73859;SDS011;62197;51.632;13.700;2023-07-29T13:12:19;1.55;;;0.77;;
73859;SDS011;62197;51.632;13.700;2023-07-29T13:14:45;1.55;;;0.70;;
73859;SDS011;62197;51.632;13.700;2023-07-29T13:17:10;0.85;;;0.50;;
73859;SDS011;62197;51.632;13.700;2023-07-29T13:19:36;0.98;;;0.63;;
73859;SDS011;62197;51.632;13.700;2023-07-29T13:22:01;0.70;;;0.40;;
73859;SDS011;62197;51.632;13.700;2023-07-29T13:24:27;1.88;;;0.60;;
73859;SDS011;62197;51.632;13.700;2023-07-29T13:26:52;1.30;;;0.70;;
73859;SDS011;62197;51.632;13.700;2023-07-29T13:29:17;1.77;;;0.57;;
73859;SDS011;62197;51.632;13.700;2023-07-29T13:31:43;1.55;;;0.95;;
73859;SDS011;62197;51.632;13.700;2023-07-29T13:34:08;1.15;;;0.68;;
73859;SDS011;62197;51.632;13.700;2023-07-29T13:36:33;3.20;;;0.60;;
73859;SDS011;62197;51.632;13.700;2023-07-29T13:38:59;2.25;;;0.60;;
73859;SDS011;62197;51.632;13.700;2023-07-29T13:41:24;1.15;;;0.77;;
73859;SDS011;62197;51.632;13.700;2023-07-29T13:43:49;1.05;;;0.65;;
73859;SDS011;62197;51.632;13.700;2023-07-29T13:46:15;1.25;;;0.80;;
73859;SDS011;62197;51.632;13.700;2023-07-29T13:48:40;1.85;;;0.70;;
73859;SDS011;62197;51.632;13.700;2023-07-29T13:51:05;2.28;;;0.70;;
73859;SDS011;62197;51.632;13.700;2023-07-29T13:53:31;1.48;;;0.57;;
73859;SDS011;62197;51.632;13.700;2023-07-29T13:55:56;1.52;;;0.73;;
73859;SDS011;62197;51.632;13.700;2023-07-29T13:58:21;1.95;;;0.50;;
73859;SDS011;62197;51.632;13.700;2023-07-29T14:00:47;0.82;;;0.60;;
73859;SDS011;62197;51.632;13.700;2023-07-29T14:03:12;1.65;;;0.68;;
73859;SDS011;62197;51.632;13.700;2023-07-29T14:05:37;3.58;;;1.02;;
73859;SDS011;62197;51.632;13.700;2023-07-29T14:08:03;1.95;;;0.70;;
73859;SDS011;62197;51.632;13.700;2023-07-29T14:10:28;2.88;;;0.77;;
73859;SDS011;62197;51.632;13.700;2023-07-29T14:12:54;2.00;;;0.55;;
73859;SDS011;62197;51.632;13.700;2023-07-29T14:15:19;1.30;;;0.60;;
73859;SDS011;62197;51.632;13.700;2023-07-29T14:17:44;2.10;;;0.60;;
73859;SDS011;62197;51.632;13.700;2023-07-29T14:20:10;1.33;;;0.45;;
73859;SDS011;62197;51.632;13.700;2023-07-29T14:22:35;1.25;;;0.60;;
73859;SDS011;62197;51.632;13.700;2023-07-29T14:25:01;1.45;;;0.40;;
73859;SDS011;62197;51.632;13.700;2023-07-29T14:27:26;2.28;;;0.70;;
73859;SDS011;62197;51.632;13.700;2023-07-29T14:29:52;1.88;;;0.43;;
73859;SDS011;62197;51.632;13.700;2023-07-29T14:32:17;1.80;;;0.65;;
73859;SDS011;62197;51.632;13.700;2023-07-29T14:34:42;0.88;;;0.45;;
73859;SDS011;62197;51.632;13.700;2023-07-29T14:37:08;4.32;;;0.70;;
73859;SDS011;62197;51.632;13.700;2023-07-29T14:39:33;1.75;;;0.95;;
73859;SDS011;62197;51.632;13.700;2023-07-29T14:41:58;3.30;;;0.95;;
73859;SDS011;62197;51.632;13.700;2023-07-29T14:44:24;5.55;;;1.20;;
73859;SDS011;62197;51.632;13.700;2023-07-29T14:46:49;3.55;;;0.85;;
73859;SDS011;62197;51.632;13.700;2023-07-29T14:49:14;1.52;;;0.60;;
73859;SDS011;62197;51.632;13.700;2023-07-29T14:51:40;0.95;;;0.50;;